Time;durP1;ratioP1;P1;durP2;ratioP2;P2;SDS_P1;SDS_P2;PMS_P1;PMS_P2;Temp;Humidity;BMP_temperature;BMP_pressure;BME280_temperature;BME280_humidity;BME280_pressure;Samples;Min_cycle;Max_cycle;Signal;HPM_P1;HPM_P2
2021/12/01 00:01:41;;;;;;;1.00;1.00;;;9.50;65.20;;;;;;4966029;28;20219;-49
2021/12/01 00:04:07;;;;;;;1.00;0.93;;;9.50;64.80;;;;;;4967655;28;20203;-49
2021/12/01 00:06:34;;;;;;;1.00;0.93;;;9.50;64.80;;;;;;4964854;28;20445;-48
2021/12/01 00:09:00;;;;;;;1.00;1.00;;;9.40;64.90;;;;;;4964527;28;20448;-49
2021/12/01 00:11:26;;;;;;;1.40;1.30;;;9.50;64.90;;;;;;4969743;28;20608;-49
2021/12/01 00:13:51;;;;;;;1.20;1.10;;;9.50;64.80;;;;;;4965151;28;20533;-49
2021/12/01 00:16:17;;;;;;;1.13;1.03;;;9.50;64.70;;;;;;4967778;28;20278;-49
2021/12/01 00:18:43;;;;;;;1.97;1.00;;;9.30;65.10;;;;;;4967341;28;20237;-49
2021/12/01 00:21:08;;;;;;;1.27;0.90;;;9.30;65.70;;;;;;4967967;28;20199;-50
2021/12/01 00:23:34;;;;;;;1.50;1.10;;;9.40;65.90;;;;;;4962429;28;20204;-49
2021/12/01 00:26:00;;;;;;;1.23;1.13;;;9.30;66.00;;;;;;4967598;28;20271;-50
2021/12/01 00:28:27;;;;;;;1.20;0.90;;;9.30;66.60;;;;;;4966798;28;20282;-48
2021/12/01 00:30:52;;;;;;;1.40;1.30;;;9.40;66.50;;;;;;4972728;28;20490;-53
2021/12/01 00:33:22;;;;;;;1.50;1.27;;;9.40;66.40;;;;;;4968871;28;20457;-48
2021/12/01 00:35:51;;;;;;;1.10;1.00;;;9.40;66.20;;;;;;4969694;28;20203;-49
2021/12/01 00:38:17;;;;;;;1.60;1.50;;;9.40;66.20;;;;;;4961108;28;20449;-51
2021/12/01 00:40:43;;;;;;;1.30;1.20;;;9.30;66.10;;;;;;4970708;28;20439;-48
2021/12/01 00:43:15;;;;;;;1.47;1.10;;;9.40;66.10;;;;;;4969552;28;20485;-49
2021/12/01 00:45:49;;;;;;;2.63;1.00;;;9.30;66.50;;;;;;4970055;28;20202;-48
2021/12/01 00:48:15;;;;;;;1.10;1.00;;;9.10;66.70;;;;;;4964058;28;20439;-49
2021/12/01 00:50:41;;;;;;;3.90;0.87;;;9.00;67.50;;;;;;4964753;28;20589;-52
2021/12/01 00:53:11;;;;;;;0.83;0.67;;;9.10;67.50;;;;;;4966560;28;20981;-48
2021/12/01 00:55:37;;;;;;;1.13;0.80;;;9.10;67.30;;;;;;4965256;28;20814;-49
2021/12/01 00:58:03;;;;;;;0.80;0.80;;;8.90;67.40;;;;;;4963946;28;20530;-51
2021/12/01 01:00:29;;;;;;;5.57;1.20;;;9.10;67.30;;;;;;4966310;28;20450;-48
2021/12/01 01:02:59;;;;;;;0.83;0.83;;;9.10;67.20;;;;;;4963308;28;20451;-49
2021/12/01 01:05:25;;;;;;;1.13;1.00;;;9.20;67.00;;;;;;4960763;28;20442;-49
2021/12/01 01:07:52;;;;;;;1.50;0.70;;;9.20;67.00;;;;;;4970890;28;20447;-48
2021/12/01 01:18:24;;;;;;;0.80;0.80;;;8.70;68.20;;;;;;4967336;28;20473;-50
2021/12/01 01:20:49;;;;;;;0.90;0.77;;;8.40;68.60;;;;;;4964364;28;20447;-48
2021/12/01 01:23:15;;;;;;;1.20;0.70;;;8.60;69.30;;;;;;4967614;28;20194;-49
2021/12/01 01:25:41;;;;;;;1.80;0.70;;;8.50;68.50;;;;;;4963807;28;20608;-49
2021/12/01 01:28:06;;;;;;;0.87;0.80;;;8.60;68.50;;;;;;4967183;28;20274;-50
2021/12/01 01:30:32;;;;;;;0.80;0.80;;;8.80;68.30;;;;;;4966692;28;20219;-48
2021/12/01 01:32:58;;;;;;;0.83;0.83;;;8.90;68.00;;;;;;4961926;28;20195;-48
2021/12/01 01:35:24;;;;;;;0.87;0.80;;;8.80;68.00;;;;;;4958503;28;20203;-50
2021/12/01 01:37:50;;;;;;;1.27;1.17;;;8.70;68.30;;;;;;4961927;28;20446;-50
2021/12/01 01:40:16;;;;;;;1.00;0.87;;;8.70;69.00;;;;;;4968431;28;20435;-48
2021/12/01 01:42:42;;;;;;;1.10;1.00;;;8.70;69.10;;;;;;4967564;28;20342;-49
2021/12/01 01:45:08;;;;;;;1.37;1.27;;;8.70;68.70;;;;;;4961418;28;20457;-48
2021/12/01 01:47:35;;;;;;;3.93;1.30;;;8.60;69.10;;;;;;4963504;28;20542;-50
2021/12/01 01:52:34;;;;;;;1.07;0.93;;;8.50;69.50;;;;;;4963555;28;20485;-50
2021/12/01 01:55:00;;;;;;;1.20;1.10;;;8.40;69.40;;;;;;4965709;28;20518;-52
2021/12/01 01:57:26;;;;;;;1.20;1.10;;;8.30;70.60;;;;;;4964287;28;20897;-48
2021/12/01 01:59:51;;;;;;;1.10;1.00;;;8.20;69.90;;;;;;4963740;28;20474;-49
2021/12/01 02:02:18;;;;;;;2.00;1.10;;;8.40;70.10;;;;;;4961802;28;20223;-49
2021/12/01 02:04:44;;;;;;;1.20;1.10;;;8.50;69.80;;;;;;4959535;28;20196;-48
2021/12/01 02:07:10;;;;;;;0.97;0.97;;;8.60;69.50;;;;;;4963779;28;20446;-49
2021/12/01 02:09:36;;;;;;;1.20;1.10;;;8.70;69.10;;;;;;4963127;28;20471;-50
2021/12/01 02:12:03;;;;;;;1.00;1.00;;;8.90;68.70;;;;;;4962503;28;20218;-49
2021/12/01 02:14:29;;;;;;;1.30;1.20;;;8.90;68.40;;;;;;4962330;28;20833;-49
2021/12/01 02:16:57;;;;;;;1.60;1.10;;;9.10;68.20;;;;;;4960106;28;20454;-49
2021/12/01 02:19:23;;;;;;;1.40;1.30;;;9.20;67.60;;;;;;4961939;28;20453;-53
2021/12/01 02:21:50;;;;;;;1.70;1.60;;;9.10;67.60;;;;;;4964874;28;22225;-50
2021/12/01 02:24:17;;;;;;;1.00;0.90;;;9.00;67.50;;;;;;4961189;28;21149;-49
2021/12/01 02:26:49;;;;;;;1.30;1.20;;;9.00;67.50;;;;;;4963262;28;20794;-49
2021/12/01 02:29:19;;;;;;;1.37;1.20;;;9.10;67.40;;;;;;4961786;28;20458;-50
2021/12/01 02:31:45;;;;;;;1.40;1.30;;;9.20;67.40;;;;;;4962508;28;20458;-49
2021/12/01 02:34:18;;;;;;;1.37;1.20;;;9.10;66.90;;;;;;4965671;28;20525;-48
2021/12/01 02:36:47;;;;;;;4.20;1.37;;;9.20;67.10;;;;;;4961733;28;20454;-49
2021/12/01 02:39:15;;;;;;;1.10;1.00;;;9.30;66.90;;;;;;4966390;28;20438;-48
2021/12/01 02:41:43;;;;;;;1.73;1.23;;;9.30;66.80;;;;;;4964670;28;20442;-49
2021/12/01 02:44:11;;;;;;;1.10;1.03;;;9.20;66.80;;;;;;4963448;28;20485;-49
2021/12/01 02:46:38;;;;;;;3.37;1.30;;;9.20;67.00;;;;;;4959339;28;20533;-50
2021/12/01 02:49:04;;;;;;;1.67;1.47;;;9.30;67.10;;;;;;4962919;28;21049;-52
2021/12/01 02:51:32;;;;;;;1.20;1.20;;;9.40;67.00;;;;;;4965060;28;20541;-49
2021/12/01 02:53:59;;;;;;;1.07;1.00;;;9.40;66.40;;;;;;4960599;28;20868;-50
2021/12/01 02:56:26;;;;;;;1.63;1.13;;;9.40;66.00;;;;;;4969833;28;20435;-48
2021/12/01 02:58:52;;;;;;;1.00;0.90;;;9.40;66.00;;;;;;4969908;28;20442;-50
2021/12/01 03:01:23;;;;;;;1.17;1.10;;;9.40;66.80;;;;;;4965697;28;20455;-50
2021/12/01 03:03:49;;;;;;;0.87;0.87;;;9.40;66.20;;;;;;4965661;28;20435;-48
2021/12/01 03:06:17;;;;;;;1.67;0.87;;;9.30;66.10;;;;;;4966427;28;20439;-49
2021/12/01 03:08:45;;;;;;;1.10;1.10;;;9.30;66.00;;;;;;4965408;28;20953;-49
2021/12/01 03:11:11;;;;;;;1.03;0.93;;;9.30;66.20;;;;;;4958579;28;20482;-50
2021/12/01 03:13:38;;;;;;;1.67;1.10;;;9.40;66.20;;;;;;4970059;28;20440;-51
2021/12/01 03:16:03;;;;;;;1.13;0.90;;;9.50;65.80;;;;;;4963714;28;20434;-48
2021/12/01 03:18:29;;;;;;;1.37;0.80;;;9.60;65.30;;;;;;4965839;28;20801;-49
2021/12/01 03:20:55;;;;;;;1.17;1.07;;;9.70;65.20;;;;;;4971203;28;20202;-49
2021/12/01 03:23:22;;;;;;;0.80;0.80;;;9.80;64.70;;;;;;4967973;28;20222;-48
2021/12/01 03:25:48;;;;;;;1.73;1.20;;;9.70;64.60;;;;;;4958460;28;20510;-49
2021/12/01 03:28:14;;;;;;;1.93;1.00;;;9.80;64.50;;;;;;4972055;28;20514;-48
2021/12/01 03:30:40;;;;;;;1.23;0.90;;;9.70;64.30;;;;;;4968868;28;20260;-48
2021/12/01 03:33:12;;;;;;;2.30;1.20;;;9.70;64.60;;;;;;4968513;28;21366;-48
2021/12/01 03:35:40;;;;;;;0.83;0.83;;;9.60;64.60;;;;;;4968885;28;20434;-49
2021/12/01 03:38:06;;;;;;;0.80;0.80;;;9.60;64.90;;;;;;4967261;28;20837;-52
2021/12/01 03:40:32;;;;;;;1.10;1.00;;;9.70;65.00;;;;;;4969736;28;20442;-50
2021/12/01 03:42:57;;;;;;;0.80;0.80;;;9.60;64.80;;;;;;4969791;28;20431;-51
2021/12/01 03:45:23;;;;;;;1.10;1.10;;;9.70;64.70;;;;;;4969770;28;20442;-48
2021/12/01 03:47:49;;;;;;;2.30;1.77;;;9.90;64.40;;;;;;4963677;28;20521;-49
2021/12/01 03:50:15;;;;;;;1.63;1.53;;;9.80;64.10;;;;;;4966461;28;20318;-48
2021/12/01 03:52:41;;;;;;;1.10;1.00;;;9.60;64.50;;;;;;4959127;28;20195;-49
2021/12/01 03:55:08;;;;;;;1.50;1.40;;;9.80;64.60;;;;;;4968144;28;20298;-50
2021/12/01 03:57:34;;;;;;;1.10;1.00;;;9.90;64.00;;;;;;4968134;28;20526;-50
2021/12/01 04:00:00;;;;;;;0.80;0.80;;;10.00;62.80;;;;;;4965787;28;20445;-51
2021/12/01 04:02:27;;;;;;;1.10;1.10;;;10.10;62.60;;;;;;4968483;28;20527;-50
2021/12/01 04:04:52;;;;;;;1.47;1.07;;;10.10;62.20;;;;;;4956991;28;20454;-48
2021/12/01 04:07:18;;;;;;;1.40;0.97;;;10.10;62.20;;;;;;4963015;28;20451;-49
2021/12/01 04:09:45;;;;;;;1.73;1.13;;;10.30;62.10;;;;;;4961615;28;20702;-49
2021/12/01 04:12:11;;;;;;;1.00;0.80;;;10.40;61.70;;;;;;4960810;28;20282;-49
2021/12/01 04:14:37;;;;;;;1.87;0.90;;;10.40;61.40;;;;;;4961983;28;22142;-48
2021/12/01 04:17:03;;;;;;;1.80;1.30;;;10.40;61.40;;;;;;4959806;28;20942;-53
2021/12/01 04:19:29;;;;;;;1.20;1.10;;;10.50;61.40;;;;;;4960531;28;20481;-49
2021/12/01 04:21:55;;;;;;;2.53;1.23;;;10.50;61.30;;;;;;4963884;28;20507;-51
2021/12/01 04:24:20;;;;;;;1.80;1.40;;;10.20;61.50;;;;;;4962853;28;20679;-48
2021/12/01 04:26:46;;;;;;;1.60;1.17;;;10.00;61.70;;;;;;4962739;28;20264;-51
2021/12/01 04:29:12;;;;;;;1.83;1.10;;;10.00;62.30;;;;;;4961583;28;20656;-50
2021/12/01 04:31:40;;;;;;;1.30;1.20;;;10.00;62.50;;;;;;4961728;28;20558;-49
2021/12/01 04:34:06;;;;;;;0.77;0.77;;;10.10;62.30;;;;;;4964571;28;20207;-52
2021/12/01 04:36:35;;;;;;;1.43;1.00;;;10.30;62.10;;;;;;4963777;28;20899;-49
2021/12/01 04:39:03;;;;;;;1.60;1.30;;;10.30;62.00;;;;;;4963044;28;22005;-49
2021/12/01 04:41:30;;;;;;;1.77;1.20;;;10.40;61.70;;;;;;4973477;28;20462;-48
2021/12/01 04:43:59;;;;;;;1.37;1.00;;;10.40;61.60;;;;;;4963480;28;20525;-49
2021/12/01 04:46:25;;;;;;;1.93;1.00;;;10.40;61.60;;;;;;4969319;28;20446;-49
2021/12/01 04:48:51;;;;;;;1.80;1.10;;;10.50;61.60;;;;;;4961895;28;20447;-50
2021/12/01 04:51:17;;;;;;;1.07;1.07;;;10.60;61.50;;;;;;4965471;28;20273;-49
2021/12/01 04:53:44;;;;;;;1.00;0.90;;;10.60;61.20;;;;;;4968136;28;20438;-50
2021/12/01 04:56:10;;;;;;;1.10;1.00;;;10.60;61.20;;;;;;4969851;28;20203;-53
2021/12/01 04:58:36;;;;;;;2.10;0.90;;;10.60;60.90;;;;;;4971032;28;20438;-51
2021/12/01 05:01:03;;;;;;;0.70;0.70;;;10.70;61.10;;;;;;4966795;28;20493;-48
2021/12/01 05:03:30;;;;;;;0.80;0.80;;;10.70;61.10;;;;;;4965404;28;20478;-52
2021/12/01 05:05:56;;;;;;;1.97;1.30;;;10.60;61.10;;;;;;4966514;28;20533;-50
2021/12/01 05:08:23;;;;;;;1.10;1.00;;;10.70;61.10;;;;;;4969556;28;20442;-52
2021/12/01 05:10:49;;;;;;;1.27;1.17;;;10.60;60.50;;;;;;4970272;28;20494;-51
2021/12/01 05:13:15;;;;;;;1.37;1.27;;;10.50;60.90;;;;;;4974993;28;20927;-49
2021/12/01 05:15:40;;;;;;;1.00;1.00;;;10.60;61.10;;;;;;4967527;28;20471;-50
2021/12/01 05:18:08;;;;;;;1.30;1.20;;;10.60;61.30;;;;;;4965739;28;20215;-52
2021/12/01 05:20:35;;;;;;;1.90;1.10;;;10.30;61.10;;;;;;4973319;28;20640;-52
2021/12/01 05:23:00;;;;;;;1.40;1.30;;;10.40;61.70;;;;;;4968011;28;20428;-49
2021/12/01 05:25:26;;;;;;;1.60;0.87;;;10.40;61.60;;;;;;4971182;28;20442;-51
2021/12/01 05:27:52;;;;;;;1.37;1.07;;;10.50;61.70;;;;;;4972434;28;20199;-52
2021/12/01 05:30:19;;;;;;;1.10;0.97;;;10.50;61.50;;;;;;4962161;28;20231;-50
2021/12/01 05:32:44;;;;;;;1.37;1.27;;;10.40;61.70;;;;;;4973412;28;20209;-49
2021/12/01 05:35:10;;;;;;;1.17;1.10;;;10.60;61.60;;;;;;4970877;28;20435;-50
2021/12/01 05:37:36;;;;;;;0.83;0.83;;;10.60;61.40;;;;;;4965495;28;20275;-49
2021/12/01 05:40:02;;;;;;;0.90;0.80;;;10.60;61.50;;;;;;4968012;28;20227;-49
2021/12/01 05:42:28;;;;;;;1.20;1.10;;;10.60;61.30;;;;;;4968990;28;20706;-48
2021/12/01 05:44:55;;;;;;;1.00;0.90;;;10.40;61.60;;;;;;4973170;28;20463;-48
2021/12/01 05:47:21;;;;;;;0.87;0.80;;;10.50;61.60;;;;;;4963117;28;20211;-50
2021/12/01 05:49:47;;;;;;;0.73;0.73;;;10.50;61.60;;;;;;4971416;28;20553;-50
2021/12/01 05:52:14;;;;;;;0.63;0.63;;;9.90;63.30;;;;;;4966738;28;20222;-48
2021/12/01 05:54:40;;;;;;;1.20;0.90;;;9.70;64.00;;;;;;4970931;28;20241;-49
2021/12/01 05:57:06;;;;;;;1.30;0.97;;;9.70;64.30;;;;;;4973178;28;20481;-48
2021/12/01 05:59:32;;;;;;;0.90;0.90;;;9.80;64.40;;;;;;4966532;28;20283;-49
2021/12/01 06:01:58;;;;;;;0.80;0.60;;;9.60;64.60;;;;;;4969452;28;20854;-48
2021/12/01 06:04:24;;;;;;;0.90;0.90;;;9.60;64.80;;;;;;4969251;28;20204;-48
2021/12/01 06:06:50;;;;;;;0.80;0.80;;;9.80;64.80;;;;;;4965587;28;20282;-48
2021/12/01 06:09:16;;;;;;;0.83;0.70;;;9.90;64.30;;;;;;4965984;28;20192;-48
2021/12/01 06:11:42;;;;;;;0.77;0.77;;;10.10;63.00;;;;;;4962133;28;20513;-49
2021/12/01 06:14:08;;;;;;;0.90;0.80;;;10.40;62.20;;;;;;4966453;28;20238;-49
2021/12/01 06:16:34;;;;;;;1.20;0.90;;;10.30;61.50;;;;;;4962428;28;20223;-49
2021/12/01 06:19:00;;;;;;;1.33;0.97;;;10.40;62.40;;;;;;4966350;28;20493;-50
2021/12/01 06:21:25;;;;;;;1.80;0.80;;;10.50;62.00;;;;;;4964924;28;20199;-48
2021/12/01 06:23:51;;;;;;;1.00;0.90;;;10.40;61.30;;;;;;4966001;28;20250;-48
2021/12/01 06:26:17;;;;;;;0.80;0.80;;;10.60;61.40;;;;;;4958101;28;20197;-49
2021/12/01 06:28:43;;;;;;;2.30;0.80;;;10.70;60.90;;;;;;4958969;28;20200;-50
2021/12/01 06:31:08;;;;;;;0.90;0.90;;;10.70;60.70;;;;;;4963057;28;22226;-49
2021/12/01 06:33:34;;;;;;;1.23;0.60;;;10.80;60.80;;;;;;4963255;28;20200;-48
2021/12/01 06:36:00;;;;;;;0.80;0.70;;;10.90;60.10;;;;;;4967494;28;20258;-48
2021/12/01 06:38:26;;;;;;;1.00;0.90;;;10.80;60.20;;;;;;4960525;28;20227;-49
2021/12/01 06:40:51;;;;;;;1.17;1.03;;;10.90;60.00;;;;;;4958409;28;20230;-49
2021/12/01 06:43:17;;;;;;;1.00;0.90;;;10.70;60.00;;;;;;4960000;28;20205;-50
2021/12/01 06:45:43;;;;;;;1.23;1.07;;;10.90;60.00;;;;;;4963390;28;20251;-48
2021/12/01 06:48:09;;;;;;;1.20;1.10;;;10.80;60.00;;;;;;4959630;28;20202;-50
2021/12/01 06:50:35;;;;;;;1.10;0.80;;;10.90;60.40;;;;;;4965052;28;21628;-49
2021/12/01 06:53:00;;;;;;;0.70;0.70;;;10.70;59.90;;;;;;4962451;28;20282;-49
2021/12/01 06:55:26;;;;;;;2.20;1.10;;;10.80;60.10;;;;;;4961214;28;20370;-49
2021/12/01 06:57:52;;;;;;;0.80;0.80;;;10.70;60.40;;;;;;4963114;28;20311;-50
2021/12/01 07:00:19;;;;;;;0.80;0.80;;;10.60;60.60;;;;;;4961206;28;20563;-48
2021/12/01 07:02:45;;;;;;;1.20;0.97;;;10.70;60.90;;;;;;4965431;28;20537;-50
2021/12/01 07:05:12;;;;;;;1.03;0.90;;;10.70;60.50;;;;;;4967275;28;20514;-52
2021/12/01 07:07:38;;;;;;;0.70;0.60;;;10.80;60.70;;;;;;4965640;28;20443;-48
2021/12/01 07:10:09;;;;;;;0.80;0.70;;;11.00;60.00;;;;;;4967891;28;20509;-48
2021/12/01 07:12:35;;;;;;;0.50;0.50;;;11.10;59.90;;;;;;4968246;28;20535;-48
2021/12/01 07:15:02;;;;;;;0.60;0.60;;;11.20;59.50;;;;;;4960328;28;20439;-49
2021/12/01 07:17:28;;;;;;;0.90;0.80;;;11.10;59.50;;;;;;4961721;28;21026;-49
2021/12/01 07:19:53;;;;;;;0.80;0.80;;;11.10;59.40;;;;;;4964517;28;20439;-49
2021/12/01 07:22:19;;;;;;;0.90;0.70;;;11.10;59.30;;;;;;4961634;28;20196;-51
2021/12/01 07:24:45;;;;;;;1.20;0.80;;;11.00;59.00;;;;;;4960461;28;20210;-48
2021/12/01 07:27:11;;;;;;;2.03;1.00;;;10.90;59.30;;;;;;4957578;28;20647;-48
2021/12/01 07:29:37;;;;;;;1.80;0.93;;;11.00;59.00;;;;;;4960554;28;20230;-49
2021/12/01 07:32:04;;;;;;;0.60;0.60;;;11.00;58.90;;;;;;4964972;28;20922;-49
2021/12/01 07:34:30;;;;;;;0.70;0.70;;;11.00;59.00;;;;;;4961502;28;20192;-47
2021/12/01 07:36:55;;;;;;;0.80;0.77;;;11.10;58.70;;;;;;4965209;28;20698;-49
2021/12/01 07:39:21;;;;;;;0.90;0.87;;;10.90;58.60;;;;;;4961853;28;20475;-47
2021/12/01 07:41:48;;;;;;;5.00;0.90;;;10.80;59.00;;;;;;4963363;28;20662;-47
2021/12/01 07:44:14;;;;;;;0.70;0.70;;;10.90;59.00;;;;;;4964408;28;20223;-47
2021/12/01 07:46:40;;;;;;;0.80;0.80;;;11.00;59.10;;;;;;4971244;28;20934;-50
2021/12/01 07:49:06;;;;;;;2.03;1.30;;;10.90;58.80;;;;;;4968872;28;20543;-47
2021/12/01 07:51:32;;;;;;;0.70;0.70;;;11.00;58.90;;;;;;4960309;28;20688;-47
2021/12/01 07:53:58;;;;;;;1.13;0.70;;;10.90;58.40;;;;;;4963423;28;20210;-52
2021/12/01 07:56:23;;;;;;;0.93;0.70;;;11.00;58.90;;;;;;4972019;28;20911;-47
2021/12/01 07:58:49;;;;;;;0.97;0.70;;;10.80;58.70;;;;;;4972208;28;20191;-48
2021/12/01 08:01:15;;;;;;;1.33;0.70;;;10.90;58.70;;;;;;4972234;28;20219;-48
2021/12/01 08:03:40;;;;;;;0.50;0.50;;;10.80;58.50;;;;;;4974759;28;20199;-50
2021/12/01 08:06:06;;;;;;;0.70;0.70;;;10.90;58.70;;;;;;4965455;28;20207;-49
2021/12/01 08:08:31;;;;;;;2.33;0.53;;;11.00;58.80;;;;;;4953285;28;20192;-49
2021/12/01 08:10:57;;;;;;;1.60;0.80;;;11.10;58.60;;;;;;4954255;28;20228;-49
2021/12/01 08:13:23;;;;;;;0.90;0.70;;;11.20;58.60;;;;;;4957762;28;20805;-48
2021/12/01 08:15:50;;;;;;;1.23;0.67;;;11.30;58.00;;;;;;4974552;28;20879;-49
2021/12/01 08:18:17;;;;;;;1.00;0.50;;;11.40;58.10;;;;;;4976039;28;20278;-47
2021/12/01 08:20:43;;;;;;;0.60;0.60;;;11.50;57.90;;;;;;4975098;28;20785;-51
2021/12/01 08:23:09;;;;;;;0.70;0.60;;;11.50;57.60;;;;;;4974609;28;20457;-48
2021/12/01 08:25:35;;;;;;;2.83;0.80;;;11.70;57.50;;;;;;4968919;28;20439;-51
2021/12/01 08:28:02;;;;;;;0.80;0.70;;;11.70;57.40;;;;;;4964849;28;20444;-47
2021/12/01 08:30:29;;;;;;;1.37;0.80;;;11.80;57.20;;;;;;4962183;28;20490;-48
2021/12/01 08:32:55;;;;;;;1.23;0.80;;;11.60;57.30;;;;;;4969177;28;21009;-47
2021/12/01 08:35:21;;;;;;;0.70;0.60;;;11.70;57.60;;;;;;4968232;28;20483;-49
2021/12/01 08:37:47;;;;;;;0.80;0.60;;;11.90;57.20;;;;;;4961833;28;20257;-49
2021/12/01 08:40:14;;;;;;;0.70;0.53;;;11.60;57.20;;;;;;4966933;28;20925;-48
2021/12/01 08:42:40;;;;;;;0.70;0.70;;;11.60;57.70;;;;;;4969700;28;20195;-47
2021/12/01 08:45:06;;;;;;;0.70;0.70;;;11.80;57.80;;;;;;4962266;28;20872;-49
2021/12/01 08:47:33;;;;;;;2.20;0.80;;;11.70;57.40;;;;;;4957191;28;20449;-50
2021/12/01 08:49:58;;;;;;;1.00;0.70;;;11.50;57.90;;;;;;4960450;28;20974;-48
2021/12/01 08:52:25;;;;;;;1.10;0.77;;;11.60;58.00;;;;;;4974211;28;20446;-49
2021/12/01 08:54:51;;;;;;;0.97;0.73;;;11.60;57.70;;;;;;4972366;28;20227;-50
2021/12/01 08:57:18;;;;;;;0.80;0.57;;;11.80;57.90;;;;;;4968039;28;20467;-49
2021/12/01 08:59:44;;;;;;;0.70;0.60;;;12.20;57.70;;;;;;4973261;28;20493;-49
2021/12/01 09:02:11;;;;;;;1.80;0.80;;;12.00;57.10;;;;;;4964978;28;20199;-49
2021/12/01 09:04:36;;;;;;;1.67;0.50;;;12.10;57.10;;;;;;4966187;28;20489;-50
2021/12/01 09:07:03;;;;;;;0.60;0.60;;;12.00;57.60;;;;;;4965258;28;20443;-50
2021/12/01 09:09:29;;;;;;;2.23;0.67;;;11.90;57.60;;;;;;4967003;28;20227;-49
2021/12/01 09:11:54;;;;;;;1.23;0.80;;;11.80;57.90;;;;;;4970705;28;20482;-49
2021/12/01 09:14:25;;;;;;;0.73;0.67;;;11.90;58.40;;;;;;4966516;28;20206;-52
2021/12/01 09:16:53;;;;;;;0.70;0.60;;;12.00;58.60;;;;;;4969364;28;20290;-51
2021/12/01 09:19:19;;;;;;;0.80;0.80;;;11.80;57.80;;;;;;4960378;28;20443;-48
2021/12/01 09:21:46;;;;;;;0.80;0.80;;;11.90;58.10;;;;;;4960907;28;20445;-47
2021/12/01 09:24:12;;;;;;;3.80;2.27;;;12.00;58.20;;;;;;4969633;28;20453;-48
2021/12/01 09:26:38;;;;;;;0.60;0.60;;;12.00;57.90;;;;;;4966785;28;20444;-47
2021/12/01 09:29:04;;;;;;;0.83;0.70;;;12.10;58.00;;;;;;4968324;28;20198;-48
2021/12/01 09:31:30;;;;;;;0.60;0.60;;;12.30;57.40;;;;;;4972035;28;20514;-49
2021/12/01 09:33:56;;;;;;;0.60;0.60;;;12.40;57.10;;;;;;4970975;28;20445;-49
2021/12/01 09:36:23;;;;;;;0.83;0.70;;;12.50;56.90;;;;;;4965404;28;20443;-52
2021/12/01 09:38:48;;;;;;;0.97;0.60;;;12.20;56.80;;;;;;4969088;28;20582;-50
2021/12/01 09:41:14;;;;;;;0.50;0.50;;;12.20;57.10;;;;;;4968792;28;20537;-48
2021/12/01 09:43:40;;;;;;;0.73;0.60;;;12.10;57.30;;;;;;4968478;28;20203;-50
2021/12/01 09:46:09;;;;;;;0.50;0.50;;;11.90;57.80;;;;;;4960938;28;20195;-48
2021/12/01 09:48:36;;;;;;;1.00;0.60;;;11.90;58.00;;;;;;4964620;28;20435;-48
2021/12/01 09:51:03;;;;;;;1.47;0.70;;;11.80;58.30;;;;;;4966598;28;20482;-48
2021/12/01 09:53:28;;;;;;;0.70;0.70;;;11.70;58.20;;;;;;4967055;28;20444;-49
2021/12/01 09:55:54;;;;;;;0.50;0.50;;;11.60;58.20;;;;;;4967259;28;20844;-48
2021/12/01 09:58:27;;;;;;;0.60;0.53;;;11.50;58.70;;;;;;4966010;28;20741;-47
2021/12/01 10:00:57;;;;;;;1.00;0.90;;;11.60;58.70;;;;;;4960829;28;20282;-48
2021/12/01 10:03:23;;;;;;;0.70;0.70;;;11.70;59.00;;;;;;4966010;28;20450;-50
2021/12/01 10:06:07;;;;;;;1.10;1.00;;;11.70;58.40;;;;;;4967337;28;21094;-48
2021/12/01 10:08:49;;;;;;;2.10;0.60;;;11.50;58.60;;;;;;4969465;28;20438;-48
2021/12/01 10:11:19;;;;;;;0.70;0.70;;;11.60;59.20;;;;;;4971805;28;20493;-49
2021/12/01 10:13:50;;;;;;;1.57;1.20;;;11.80;59.00;;;;;;4969280;28;20850;-48
2021/12/01 10:16:18;;;;;;;0.50;0.50;;;11.80;58.60;;;;;;4970565;28;20470;-50
2021/12/01 10:18:46;;;;;;;0.83;0.70;;;11.80;58.00;;;;;;4964364;28;20442;-50
2021/12/01 10:21:16;;;;;;;0.90;0.80;;;11.80;58.10;;;;;;4963319;28;20443;-48
2021/12/01 10:23:48;;;;;;;1.67;0.83;;;11.80;58.00;;;;;;4971682;28;20450;-48
2021/12/01 10:26:17;;;;;;;0.80;0.70;;;11.90;58.20;;;;;;4962978;28;20526;-52
2021/12/01 10:28:46;;;;;;;0.90;0.60;;;11.80;58.00;;;;;;4970644;28;20453;-49
2021/12/01 10:31:13;;;;;;;0.63;0.57;;;12.00;58.20;;;;;;4963584;28;20841;-49
2021/12/01 10:33:40;;;;;;;0.70;0.70;;;11.90;57.90;;;;;;4959708;28;20805;-50
2021/12/01 10:36:07;;;;;;;0.70;0.70;;;12.00;58.20;;;;;;4958545;28;20505;-49
2021/12/01 10:38:40;;;;;;;0.70;0.70;;;11.90;57.90;;;;;;4964170;28;20501;-52
2021/12/01 10:41:11;;;;;;;2.00;0.60;;;12.00;58.30;;;;;;4967898;28;20444;-48
2021/12/01 10:43:41;;;;;;;0.80;0.60;;;12.10;57.80;;;;;;4966921;28;20564;-48
2021/12/01 10:46:10;;;;;;;0.87;0.73;;;12.20;57.70;;;;;;4968921;28;21224;-48
2021/12/01 10:48:36;;;;;;;0.73;0.70;;;12.10;58.20;;;;;;4966652;28;20444;-50
2021/12/01 10:51:02;;;;;;;0.53;0.53;;;12.00;57.80;;;;;;4971114;28;20498;-47
2021/12/01 10:53:29;;;;;;;0.70;0.60;;;12.10;57.90;;;;;;4970709;28;20427;-49
2021/12/01 10:56:02;;;;;;;1.13;0.60;;;12.10;58.00;;;;;;4969100;28;20481;-48
2021/12/01 10:58:45;;;;;;;1.10;0.60;;;12.30;57.70;;;;;;4963913;28;20454;-49
2021/12/01 11:01:24;;;;;;;0.60;0.60;;;12.50;57.50;;;;;;4959121;28;20862;-48
2021/12/01 11:03:51;;;;;;;1.50;0.60;;;12.30;57.30;;;;;;4968475;28;20541;-50
2021/12/01 11:06:23;;;;;;;0.60;0.60;;;12.40;57.80;;;;;;4968471;28;20442;-52
2021/12/01 11:08:56;;;;;;;0.60;0.60;;;12.60;57.70;;;;;;4957385;28;20446;-49
2021/12/01 11:11:24;;;;;;;0.70;0.70;;;12.60;57.60;;;;;;4964945;28;20497;-48
2021/12/01 11:13:50;;;;;;;0.80;0.80;;;12.50;57.40;;;;;;4962673;28;20446;-50
2021/12/01 11:16:18;;;;;;;0.60;0.60;;;12.50;58.00;;;;;;4962267;28;20464;-48
2021/12/01 11:18:47;;;;;;;0.70;0.50;;;12.60;58.00;;;;;;4964340;28;20478;-49
2021/12/01 11:21:18;;;;;;;1.90;0.50;;;12.60;57.80;;;;;;4963639;28;20479;-48
2021/12/01 11:23:49;;;;;;;0.90;0.50;;;12.60;57.90;;;;;;4966875;28;20451;-49
2021/12/01 11:26:20;;;;;;;0.50;0.50;;;12.50;58.70;;;;;;4967250;28;20446;-49
2021/12/01 11:28:48;;;;;;;1.73;0.60;;;12.40;59.10;;;;;;4968792;28;20430;-49
2021/12/01 11:31:20;;;;;;;0.70;0.70;;;12.10;59.20;;;;;;4957691;28;20627;-48
2021/12/01 11:33:47;;;;;;;0.70;0.70;;;12.20;59.90;;;;;;4967721;28;20434;-49
2021/12/01 11:36:17;;;;;;;1.00;0.70;;;12.30;60.00;;;;;;4968740;28;20434;-48
2021/12/01 11:38:43;;;;;;;6.30;0.67;;;12.40;60.30;;;;;;4968714;28;20926;-49
2021/12/01 11:41:10;;;;;;;0.90;0.60;;;12.60;60.10;;;;;;4983997;28;20474;-49
2021/12/01 11:43:37;;;;;;;0.70;0.50;;;12.80;59.70;;;;;;4965174;28;20549;-48
2021/12/01 11:46:04;;;;;;;0.70;0.60;;;12.60;59.20;;;;;;4960996;28;20443;-48
2021/12/01 11:48:37;;;;;;;0.73;0.73;;;12.50;59.40;;;;;;4970664;28;20434;-49
2021/12/01 11:51:20;;;;;;;0.53;0.53;;;12.50;59.80;;;;;;4968444;28;20583;-48
2021/12/01 11:53:53;;;;;;;0.50;0.50;;;12.60;59.80;;;;;;4971797;28;20447;-51
2021/12/01 11:56:32;;;;;;;0.83;0.70;;;12.60;59.30;;;;;;4968382;28;20431;-48
2021/12/01 11:59:05;;;;;;;0.60;0.60;;;12.70;59.40;;;;;;4965282;28;21005;-48
2021/12/01 12:01:32;;;;;;;0.90;0.77;;;12.90;59.00;;;;;;4971096;28;20501;-50
2021/12/01 12:04:00;;;;;;;0.60;0.60;;;13.00;58.30;;;;;;4970588;28;20521;-49
2021/12/01 12:06:43;;;;;;;0.80;0.70;;;12.80;58.50;;;;;;4967139;28;20533;-48
2021/12/01 12:09:11;;;;;;;1.53;0.60;;;12.70;58.80;;;;;;4965353;28;20447;-48
2021/12/01 12:11:39;;;;;;;0.50;0.50;;;12.50;58.80;;;;;;4969643;28;20470;-48
2021/12/01 12:14:10;;;;;;;0.57;0.57;;;12.50;59.40;;;;;;4971378;28;20497;-48
2021/12/01 12:16:38;;;;;;;0.77;0.60;;;12.70;59.50;;;;;;4971246;28;20433;-49
2021/12/01 12:19:03;;;;;;;0.60;0.60;;;12.40;59.50;;;;;;4960509;28;20820;-49
2021/12/01 12:21:51;;;;;;;0.70;0.70;;;12.40;59.80;;;;;;4960987;28;20450;-48
2021/12/01 12:24:19;;;;;;;1.43;0.97;;;12.30;60.20;;;;;;4964219;28;20727;-49
2021/12/01 12:26:53;;;;;;;0.50;0.50;;;12.60;59.80;;;;;;4965299;28;20930;-48
2021/12/01 12:29:23;;;;;;;0.93;0.70;;;12.60;60.00;;;;;;4961992;28;20514;-48
2021/12/01 12:31:52;;;;;;;1.10;0.80;;;12.70;60.10;;;;;;4961691;28;20553;-48
2021/12/01 12:34:23;;;;;;;1.17;0.80;;;12.50;59.60;;;;;;4967657;28;20759;-48
2021/12/01 12:36:55;;;;;;;1.03;0.93;;;12.60;60.00;;;;;;4963567;28;20432;-47
2021/12/01 12:39:28;;;;;;;0.90;0.60;;;12.80;60.00;;;;;;4967250;28;20463;-51
2021/12/01 12:42:06;;;;;;;1.43;1.00;;;12.60;59.90;;;;;;4969475;28;20439;-49
2021/12/01 12:44:35;;;;;;;3.23;1.10;;;12.50;60.10;;;;;;4958813;28;20444;-50
2021/12/01 12:47:07;;;;;;;1.23;0.83;;;12.60;60.60;;;;;;4967933;28;20466;-49
2021/12/01 12:49:43;;;;;;;1.00;0.87;;;12.70;60.40;;;;;;4963127;28;20474;-50
2021/12/01 12:52:35;;;;;;;0.70;0.70;;;12.80;59.80;;;;;;4966633;28;20525;-49
2021/12/01 12:55:29;;;;;;;0.80;0.70;;;13.00;60.00;;;;;;4956476;28;20482;-52
2021/12/01 12:58:02;;;;;;;0.97;0.87;;;13.00;59.70;;;;;;4962697;28;20439;-49
2021/12/01 13:00:46;;;;;;;1.33;1.23;;;13.10;59.90;;;;;;4964999;28;20533;-48
2021/12/01 13:03:25;;;;;;;0.83;0.83;;;12.90;59.70;;;;;;4965346;28;20501;-52